Time;durP1;ratioP1;P1;durP2;ratioP2;P2;SDS_P1;SDS_P2;PMS_P1;PMS_P2;Temp;Humidity;BMP_temperature;BMP_pressure;BME280_temperature;BME280_humidity;BME280_pressure;Samples;Min_cycle;Max_cycle;Signal;HPM_P1;HPM_P2
2023/09/01 00:01:15;;;;;;;6.22;3.22;;;;;;;-143.21;62.28;71792.59;5029137;28;20202;-82
2023/09/01 00:03:42;;;;;;;7.15;3.53;;;;;;;-143.21;62.46;71796.56;5029054;28;20203;-83
2023/09/01 00:06:12;;;;;;;5.07;3.45;;;;;;;-143.21;62.59;71786.63;5028867;28;20206;-83
2023/09/01 00:08:39;;;;;;;6.45;3.50;;;;;;;-143.21;62.70;71792.59;5029640;28;20225;-83
2023/09/01 00:11:06;;;;;;;4.78;3.28;;;;;;;-143.21;63.00;71798.53;5029188;28;20789;-82
2023/09/01 00:13:33;;;;;;;5.22;3.63;;;;;;;-143.21;63.03;71814.41;5028552;28;20305;-81
2023/09/01 00:16:00;;;;;;;8.95;3.67;;;;;;;-143.21;62.93;71810.44;5027429;28;20202;-81
2023/09/01 00:18:30;;;;;;;9.60;4.15;;;;;;;-143.21;62.94;71824.31;5027967;28;20272;-80
2023/09/01 00:21:00;;;;;;;6.85;4.30;;;;;;;-143.21;63.04;71826.28;5031109;28;20245;-81
2023/09/01 00:23:28;;;;;;;7.20;3.67;;;;;;;-143.21;63.33;71826.28;5041342;28;20216;-82
2023/09/01 00:25:56;;;;;;;10.35;3.78;;;;;;;-143.21;63.46;71828.28;5041491;28;20194;-81
2023/09/01 00:28:23;;;;;;;5.93;3.58;;;;;;;-143.21;63.90;71836.22;5041049;28;20684;-81
2023/09/01 00:30:55;;;;;;;7.63;3.90;;;;;;;-143.21;64.08;71832.25;5045629;28;20220;-80
2023/09/01 00:33:24;;;;;;;7.35;3.60;;;;;;;-143.21;64.33;71838.19;5043876;28;20299;-81
2023/09/01 00:35:53;;;;;;;6.78;4.10;;;;;;;-143.21;64.77;71854.06;5047067;28;20210;-81
2023/09/01 00:38:20;;;;;;;6.35;3.50;;;;;;;-143.21;64.82;71856.03;5040094;28;20210;-81
2023/09/01 00:40:48;;;;;;;7.13;3.60;;;;;;;-143.21;64.70;71852.06;5041872;28;21200;-80
2023/09/01 00:43:15;;;;;;;10.85;3.60;;;;;;;-143.21;64.98;71854.06;5042624;28;20198;-80
2023/09/01 00:45:42;;;;;;;7.22;3.70;;;;;;;-143.21;65.17;71865.97;5049187;28;20228;-81
2023/09/01 00:48:10;;;;;;;8.07;3.40;;;;;;;-143.21;65.26;71867.94;5046511;28;20244;-80
2023/09/01 00:50:37;;;;;;;5.07;3.47;;;;;;;-143.21;65.48;71869.91;5045083;28;20202;-79
2023/09/01 00:53:06;;;;;;;8.43;4.18;;;;;;;-143.21;65.30;71871.91;5041158;28;20205;-79
2023/09/01 00:55:34;;;;;;;6.70;3.85;;;;;;;-143.21;65.57;71879.84;5047584;28;20267;-79
2023/09/01 00:58:01;;;;;;;6.38;3.63;;;;;;;-143.21;65.66;71877.84;5044918;28;20229;-79
2023/09/01 01:00:28;;;;;;;7.72;3.63;;;;;;;-143.21;65.89;71885.78;5037954;28;20233;-78
2023/09/01 01:02:55;;;;;;;6.80;3.85;;;;;;;-143.21;65.90;71891.72;5045717;28;20206;-79
2023/09/01 01:05:30;;;;;;;6.32;3.88;;;;;;;-143.21;65.80;71881.81;5044298;28;21937;-80
2023/09/01 01:08:05;;;;;;;4.90;3.45;;;;;;;-143.21;65.65;71883.81;5042931;28;20210;-79
2023/09/01 01:10:42;;;;;;;5.22;3.53;;;;;;;-143.21;65.90;71893.72;5043430;28;20189;-79
2023/09/01 01:13:11;;;;;;;6.03;3.75;;;;;;;-143.21;66.08;71891.72;5049892;28;20611;-79
2023/09/01 01:15:42;;;;;;;8.05;3.63;;;;;;;-143.21;65.98;71893.72;5048257;28;20577;-79
2023/09/01 01:18:12;;;;;;;5.72;3.72;;;;;;;-143.21;66.28;71895.69;5048484;28;20289;-79
2023/09/01 01:20:46;;;;;;;8.80;4.70;;;;;;;-143.21;66.46;71907.59;5039584;28;20235;-79
2023/09/01 01:23:16;;;;;;;8.73;4.68;;;;;;;-143.21;66.56;71907.59;5031727;28;20201;-79
2023/09/01 01:25:47;;;;;;;9.07;4.68;;;;;;;-143.21;66.69;71925.44;5028986;28;20215;-80
2023/09/01 01:28:15;;;;;;;7.32;3.90;;;;;;;-143.21;67.06;71923.47;5025599;28;20687;-80
2023/09/01 01:30:42;;;;;;;5.38;3.63;;;;;;;-143.21;67.12;71931.38;5029606;28;20207;-81
2023/09/01 01:33:21;;;;;;;6.82;3.92;;;;;;;-143.21;67.33;71933.38;5042542;28;20198;-80
2023/09/01 01:35:57;;;;;;;8.63;4.63;;;;;;;-143.21;67.51;71943.28;5039065;28;20267;-82
2023/09/01 01:38:27;;;;;;;5.85;3.80;;;;;;;-143.21;67.65;71955.19;5038305;28;20204;-82
2023/09/01 01:41:02;;;;;;;7.22;4.05;;;;;;;-143.21;68.08;71959.16;5034795;28;20222;-82
2023/09/01 01:43:31;;;;;;;7.28;4.05;;;;;;;-143.21;67.82;71947.25;5035303;28;20231;-82
2023/09/01 01:45:59;;;;;;;7.30;4.05;;;;;;;-143.21;67.87;71957.16;5036230;28;20207;-81
2023/09/01 01:48:25;;;;;;;11.07;4.32;;;;;;;-143.21;68.06;71957.16;5031941;28;20226;-81
2023/09/01 01:50:55;;;;;;;8.65;4.57;;;;;;;-143.21;68.18;71957.16;5026146;28;20230;-80
2023/09/01 01:53:22;;;;;;;9.80;4.35;;;;;;;-143.21;68.26;71959.16;5036773;28;20302;-80
2023/09/01 01:55:50;;;;;;;8.43;4.38;;;;;;;-143.21;68.32;71975.00;5034093;28;20210;-80
2023/09/01 01:58:17;;;;;;;11.63;4.60;;;;;;;-143.21;68.79;71982.94;5027548;28;20752;-80
2023/09/01 02:00:43;;;;;;;11.38;4.97;;;;;;;-143.21;68.97;71988.91;5032455;28;20234;-79
2023/09/01 02:03:10;;;;;;;11.93;5.07;;;;;;;-143.21;69.09;71992.88;5032062;28;20213;-79
2023/09/01 02:05:37;;;;;;;8.77;4.82;;;;;;;-143.21;68.84;71988.91;5024193;28;20284;-80
2023/09/01 02:08:05;;;;;;;13.05;7.55;;;;;;;-143.21;69.08;71992.88;5029464;28;20211;-82
2023/09/01 02:10:33;;;;;;;13.77;6.32;;;;;;;-143.21;68.72;71986.91;5036653;28;20291;-81
2023/09/01 02:13:03;;;;;;;8.75;5.32;;;;;;;-143.21;68.83;71980.97;5028119;28;20238;-80
2023/09/01 02:15:31;;;;;;;9.10;4.93;;;;;;;-143.21;68.52;71977.00;5023761;28;20318;-82
2023/09/01 02:17:58;;;;;;;11.75;5.28;;;;;;;-143.21;68.58;71988.91;5022845;28;20273;-81
2023/09/01 02:20:26;;;;;;;8.93;5.40;;;;;;;-143.21;68.45;71986.91;5026359;28;21787;-81
2023/09/01 02:22:55;;;;;;;7.60;5.18;;;;;;;-143.21;68.20;71977.00;5048659;28;20202;-81
2023/09/01 02:25:22;;;;;;;9.70;5.90;;;;;;;-143.21;68.21;71986.91;5040402;28;20221;-81
2023/09/01 02:27:49;;;;;;;7.82;5.05;;;;;;;-143.21;68.37;71996.81;5041093;28;20297;-81
2023/09/01 02:30:17;;;;;;;9.13;5.10;;;;;;;-143.21;68.50;72000.78;5046921;28;20198;-81
2023/09/01 02:32:44;;;;;;;11.65;5.35;;;;;;;-143.21;68.94;72010.72;5043805;28;20202;-81
2023/09/01 02:35:11;;;;;;;7.90;4.70;;;;;;;-143.21;69.18;72018.63;5045634;28;20206;-82
2023/09/01 02:37:38;;;;;;;8.90;4.73;;;;;;;-143.21;69.18;72030.53;5041832;28;20206;-83
2023/09/01 02:40:10;;;;;;;9.97;4.10;;;;;;;-143.21;69.32;72020.63;5038804;28;20712;-82
2023/09/01 02:42:39;;;;;;;9.83;4.87;;;;;;;-143.21;69.20;72014.69;5048885;28;20201;-82
2023/09/01 02:45:08;;;;;;;8.02;5.03;;;;;;;-143.21;69.12;72010.72;5038589;28;20234;-83
2023/09/01 02:47:38;;;;;;;9.80;5.82;;;;;;;-143.21;69.01;72004.75;5043925;28;20210;-82
2023/09/01 02:50:05;;;;;;;11.77;5.70;;;;;;;-143.21;68.45;71998.81;5041907;28;20202;-82
2023/09/01 02:52:32;;;;;;;14.07;5.13;;;;;;;-143.21;68.79;72016.66;5042414;28;20264;-82
2023/09/01 02:54:59;;;;;;;14.80;5.72;;;;;;;-143.21;68.96;72008.72;5046026;28;20621;-82
2023/09/01 02:57:26;;;;;;;9.55;6.30;;;;;;;-143.21;68.84;72008.72;5049557;28;20194;-82
2023/09/01 02:59:54;;;;;;;13.45;6.13;;;;;;;-143.21;68.79;72012.69;5039379;28;20225;-82
2023/09/01 03:02:20;;;;;;;13.37;5.93;;;;;;;-143.21;68.74;72008.72;5040043;28;20268;-79
2023/09/01 03:04:50;;;;;;;10.43;5.85;;;;;;;-143.21;69.05;72008.72;5041542;28;20206;-79
2023/09/01 03:07:16;;;;;;;10.13;5.90;;;;;;;-143.21;68.79;72010.72;5037767;28;20223;-79
2023/09/01 03:09:44;;;;;;;11.68;6.10;;;;;;;-143.21;68.52;72006.75;5047028;28;20590;-79
2023/09/01 03:12:10;;;;;;;10.90;5.85;;;;;;;-143.21;68.61;72008.72;5049790;28;20213;-80
2023/09/01 03:14:37;;;;;;;12.48;5.88;;;;;;;-143.21;68.57;72012.69;5043474;28;20202;-80
2023/09/01 03:17:06;;;;;;;10.90;5.38;;;;;;;-143.21;68.62;72014.69;5047853;28;20222;-80
2023/09/01 03:19:33;;;;;;;12.43;6.18;;;;;;;-143.21;68.68;72030.53;5045681;28;20289;-79
2023/09/01 03:22:01;;;;;;;16.50;6.50;;;;;;;-143.21;69.03;72026.56;5042880;28;20558;-79
2023/09/01 03:24:28;;;;;;;13.45;6.75;;;;;;;-143.21;68.93;72032.53;5039690;28;20199;-79
2023/09/01 03:26:55;;;;;;;10.10;6.77;;;;;;;-143.21;68.82;72036.50;5045464;28;20217;-80
2023/09/01 03:29:22;;;;;;;10.90;6.55;;;;;;;-143.21;68.70;72040.44;5040343;28;20218;-79
2023/09/01 03:31:49;;;;;;;10.75;6.60;;;;;;;-143.21;68.93;72048.38;5042802;28;20239;-80
2023/09/01 03:34:15;;;;;;;15.65;6.57;;;;;;;-143.21;69.26;72054.34;5046968;28;20202;-80
2023/09/01 03:36:42;;;;;;;11.40;6.30;;;;;;;-143.21;69.47;72066.22;5043960;28;20317;-80
2023/09/01 03:39:10;;;;;;;15.43;5.93;;;;;;;-143.21;69.55;72062.25;5045560;28;20209;-81
2023/09/01 03:41:37;;;;;;;14.05;6.00;;;;;;;-143.21;69.72;72068.22;5039838;28;20700;-81
2023/09/01 03:44:04;;;;;;;14.63;6.53;;;;;;;-143.21;69.59;72066.22;5046437;28;20214;-81
2023/09/01 03:46:31;;;;;;;19.47;6.63;;;;;;;-143.21;69.47;72070.19;5041241;28;20221;-81
2023/09/01 03:48:58;;;;;;;18.37;7.17;;;;;;;-143.21;69.78;72074.16;5043490;28;20293;-81
2023/09/01 03:51:25;;;;;;;18.38;7.03;;;;;;;-143.21;69.74;72078.13;5044248;28;20217;-81
2023/09/01 03:53:52;;;;;;;20.80;7.53;;;;;;;-143.21;69.86;72076.16;5046842;28;20206;-80
2023/09/01 03:56:24;;;;;;;21.17;7.20;;;;;;;-143.21;70.02;72078.13;5038600;28;20291;-80
2023/09/01 03:58:51;;;;;;;19.58;7.25;;;;;;;-143.21;69.75;72082.09;5044997;28;20213;-80
2023/09/01 04:01:20;;;;;;;14.73;6.63;;;;;;;-143.21;69.94;72078.13;5041080;28;20230;-79
2023/09/01 04:03:49;;;;;;;22.53;7.03;;;;;;;-143.21;70.03;72086.06;5038707;28;20217;-79
2023/09/01 04:06:18;;;;;;;18.83;7.22;;;;;;;-143.21;70.18;72090.03;5044329;28;20567;-80
2023/09/01 04:08:46;;;;;;;15.50;7.67;;;;;;;-143.21;69.92;72094.00;5037783;28;20658;-80
2023/09/01 04:11:13;;;;;;;18.63;8.07;;;;;;;-143.21;69.90;72095.97;5042699;28;20194;-80
2023/09/01 04:13:42;;;;;;;18.63;9.00;;;;;;;-143.21;70.02;72101.94;5042687;28;20224;-80
2023/09/01 04:16:09;;;;;;;22.40;9.37;;;;;;;-143.21;70.11;72101.94;5039319;28;20210;-80
2023/09/01 04:18:36;;;;;;;25.67;10.00;;;;;;;-143.21;70.26;72097.97;5041316;28;20213;-80
2023/09/01 04:21:03;;;;;;;26.13;9.67;;;;;;;-143.21;70.22;72092.00;5041818;28;20234;-80
2023/09/01 04:23:31;;;;;;;19.98;8.23;;;;;;;-143.21;70.08;72094.00;5037811;28;20203;-80
2023/09/01 04:25:58;;;;;;;19.13;7.90;;;;;;;-143.21;70.11;72082.09;5041823;28;20202;-80
2023/09/01 04:28:25;;;;;;;14.67;6.60;;;;;;;-143.21;69.69;72084.06;5044414;28;20211;-80
2023/09/01 04:30:53;;;;;;;11.73;6.50;;;;;;;-143.21;69.87;72086.06;5034090;28;20217;-79
2023/09/01 04:33:23;;;;;;;13.70;6.37;;;;;;;-143.21;69.07;72052.34;5044856;28;20210;-81
2023/09/01 04:35:56;;;;;;;10.98;6.38;;;;;;;-143.21;68.20;72022.59;5045228;28;20213;-80
2023/09/01 04:38:23;;;;;;;16.77;7.07;;;;;;;-143.21;67.88;72018.63;5044608;28;20686;-80
2023/09/01 04:40:55;;;;;;;22.05;7.78;;;;;;;-143.21;67.88;72026.56;5044374;28;20229;-80
2023/09/01 04:43:22;;;;;;;19.42;8.73;;;;;;;-143.21;68.12;72038.47;5042113;28;20241;-79
2023/09/01 04:45:48;;;;;;;12.90;6.80;;;;;;;-143.21;68.46;72052.34;5042704;28;20617;-79
2023/09/01 04:48:17;;;;;;;11.65;5.97;;;;;;;-143.21;68.55;72058.31;5046554;28;20289;-80
2023/09/01 04:50:44;;;;;;;10.25;5.97;;;;;;;-143.21;68.76;72064.25;5048165;28;20202;-79
2023/09/01 04:53:11;;;;;;;13.57;6.18;;;;;;;-143.21;68.98;72064.25;5049250;28;20206;-79
2023/09/01 04:55:38;;;;;;;12.33;6.10;;;;;;;-143.21;69.27;72072.19;5043808;28;20276;-80
2023/09/01 04:58:05;;;;;;;8.77;5.68;;;;;;;-143.21;69.15;72066.22;5048022;28;20198;-78
2023/09/01 05:00:31;;;;;;;11.65;5.38;;;;;;;-143.21;69.17;72082.09;5049655;28;20229;-79
2023/09/01 05:02:58;;;;;;;13.48;5.72;;;;;;;-143.21;69.30;72076.16;5048046;28;20577;-78
2023/09/01 05:05:33;;;;;;;14.05;6.10;;;;;;;-143.21;69.04;72076.16;5048013;28;20201;-80
2023/09/01 05:08:00;;;;;;;10.03;5.80;;;;;;;-143.21;68.82;72074.16;5039582;28;20221;-77
2023/09/01 05:10:27;;;;;;;10.63;5.73;;;;;;;-143.21;68.86;72070.19;5041662;28;20272;-79
2023/09/01 05:12:54;;;;;;;8.98;5.20;;;;;;;-143.21;68.39;72066.22;5047409;28;20201;-84
2023/09/01 05:15:23;;;;;;;13.07;5.55;;;;;;;-143.21;68.58;72062.25;5049904;28;20577;-84
2023/09/01 05:17:50;;;;;;;11.00;5.50;;;;;;;-143.21;66.83;72010.72;5045603;28;20202;-83
2023/09/01 05:20:17;;;;;;;12.32;5.28;;;;;;;-143.21;66.03;71992.88;5042246;28;20238;-84
2023/09/01 05:22:45;;;;;;;14.73;5.35;;;;;;;-143.21;66.25;72002.78;5032833;28;20202;-84
2023/09/01 05:25:12;;;;;;;7.50;4.50;;;;;;;-143.21;66.08;72014.69;5027523;28;20191;-80
2023/09/01 05:27:39;;;;;;;10.40;4.85;;;;;;;-143.21;66.47;72032.53;5025003;28;20203;-81
2023/09/01 05:30:07;;;;;;;8.63;5.10;;;;;;;-143.21;66.52;72034.50;5033115;28;20289;-80
2023/09/01 05:32:35;;;;;;;13.70;5.70;;;;;;;-143.21;66.96;72034.50;5037958;28;20265;-80
2023/09/01 05:35:03;;;;;;;11.00;5.72;;;;;;;-143.21;67.25;72040.44;5036933;28;20654;-80
2023/09/01 05:37:29;;;;;;;10.73;5.95;;;;;;;-143.21;67.48;72040.44;5034768;28;20230;-80
2023/09/01 05:39:58;;;;;;;11.93;6.10;;;;;;;-143.21;67.18;72014.69;5031530;28;20202;-83
2023/09/01 05:42:24;;;;;;;12.60;5.40;;;;;;;-143.21;66.11;71982.94;5033395;28;20302;-79
2023/09/01 05:44:51;;;;;;;13.68;6.07;;;;;;;-143.21;65.55;71980.97;5030004;28;20744;-79
2023/09/01 05:47:22;;;;;;;9.48;5.55;;;;;;;-143.21;65.69;71977.00;5038011;28;20880;-80
2023/09/01 05:49:48;;;;;;;12.30;5.80;;;;;;;-143.21;66.02;71988.91;5040359;28;20214;-80
2023/09/01 05:52:15;;;;;;;9.38;6.40;;;;;;;-143.21;66.35;71998.81;5049885;28;20198;-82
2023/09/01 05:54:42;;;;;;;11.02;5.82;;;;;;;-143.21;66.42;72000.78;5041597;28;20202;-81
2023/09/01 05:57:17;;;;;;;9.23;5.68;;;;;;;-143.21;66.52;72006.75;5033756;28;20657;-81
2023/09/01 05:59:44;;;;;;;15.75;6.80;;;;;;;-143.21;66.51;72006.75;5042734;28;20209;-81
2023/09/01 06:02:10;;;;;;;13.35;6.30;;;;;;;-143.21;66.38;72002.78;5037539;28;20226;-82
2023/09/01 06:04:37;;;;;;;11.02;6.45;;;;;;;-143.21;65.92;71975.00;5029041;28;20203;-81
2023/09/01 06:07:05;;;;;;;12.00;5.90;;;;;;;-143.21;65.49;71945.28;5031142;28;20209;-81
2023/09/01 06:09:32;;;;;;;10.63;6.03;;;;;;;-143.21;65.01;71939.31;5027932;28;20631;-81
2023/09/01 06:11:59;;;;;;;15.07;5.32;;;;;;;-143.21;65.54;71953.19;5034800;28;20275;-80
2023/09/01 06:14:27;;;;;;;10.95;4.68;;;;;;;-143.21;66.13;71959.16;5022441;28;20225;-80
2023/09/01 06:16:54;;;;;;;14.98;5.50;;;;;;;-143.21;66.35;71961.13;5026228;28;20203;-81
2023/09/01 06:19:21;;;;;;;10.70;5.20;;;;;;;-143.21;66.30;71953.19;5031118;28;20212;-81
2023/09/01 06:21:48;;;;;;;11.43;4.90;;;;;;;-143.21;66.45;71953.19;5047805;28;20253;-81
2023/09/01 06:24:15;;;;;;;9.98;4.57;;;;;;;-143.21;66.59;71959.16;5037711;28;20203;-81
2023/09/01 06:26:42;;;;;;;7.97;4.53;;;;;;;-143.21;66.25;71933.38;5040659;28;20677;-80
2023/09/01 06:29:09;;;;;;;7.82;4.65;;;;;;;-143.21;65.48;71907.59;5049323;28;20261;-80
2023/09/01 06:31:41;;;;;;;9.07;4.50;;;;;;;-143.21;65.09;71895.69;5044154;28;20727;-81
2023/09/01 06:34:08;;;;;;;9.00;3.95;;;;;;;-143.21;64.88;71891.72;5045413;28;20611;-83
2023/09/01 06:36:34;;;;;;;8.15;4.50;;;;;;;-143.21;65.22;71887.78;5041549;28;20198;-83
2023/09/01 06:39:02;;;;;;;9.90;4.82;;;;;;;-143.21;65.14;71883.81;5046821;28;20208;-84
2023/09/01 06:41:29;;;;;;;10.05;4.60;;;;;;;-143.21;65.25;71883.81;5047039;28;20985;-84
2023/09/01 06:43:57;;;;;;;8.45;5.07;;;;;;;-143.21;65.29;71885.78;5039813;28;20205;-83
2023/09/01 06:46:24;;;;;;;9.57;4.97;;;;;;;-143.21;65.34;71881.81;5044966;28;20810;-84
2023/09/01 06:48:52;;;;;;;12.65;5.22;;;;;;;-143.21;65.28;71877.84;5041091;28;20233;-84
2023/09/01 06:51:19;;;;;;;9.85;5.53;;;;;;;-143.21;64.22;71836.22;5052147;28;20213;-84
2023/09/01 06:53:46;;;;;;;8.68;5.93;;;;;;;-143.21;63.51;71814.41;5038782;28;20352;-83
2023/09/01 06:56:13;;;;;;;10.05;4.80;;;;;;;-143.21;63.64;71818.38;5047406;28;20209;-84
2023/09/01 06:58:40;;;;;;;7.15;4.88;;;;;;;-143.21;63.76;71818.38;5046189;28;20247;-83
2023/09/01 07:01:08;;;;;;;9.82;4.20;;;;;;;-143.21;63.77;71822.34;5044854;28;20217;-84
2023/09/01 07:03:35;;;;;;;8.73;4.82;;;;;;;-143.21;63.71;71824.31;5047309;28;20198;-81
2023/09/01 07:06:04;;;;;;;8.98;4.28;;;;;;;-143.21;63.72;71830.25;5034650;28;20588;-81
2023/09/01 07:08:31;;;;;;;9.57;4.70;;;;;;;-143.21;63.67;71826.28;5044916;28;20203;-81
2023/09/01 07:11:02;;;;;;;11.27;4.53;;;;;;;-143.21;63.53;71820.34;5048852;28;20213;-80
2023/09/01 07:13:29;;;;;;;8.75;4.93;;;;;;;-143.21;63.46;71816.38;5049345;28;20226;-84
2023/09/01 07:15:56;;;;;;;6.53;4.75;;;;;;;-143.21;63.24;71804.47;5041686;28;20837;-84
2023/09/01 07:18:25;;;;;;;8.18;4.43;;;;;;;-143.21;62.81;71778.72;5046038;28;20213;-84
2023/09/01 07:20:52;;;;;;;8.90;4.47;;;;;;;-143.21;61.78;71752.94;5049938;28;20238;-84
2023/09/01 07:23:21;;;;;;;10.57;4.80;;;;;;;-143.21;61.75;71750.94;5048407;28;20202;-83
2023/09/01 07:25:47;;;;;;;7.05;4.22;;;;;;;-143.21;61.42;71750.94;5040482;28;20206;-84
2023/09/01 07:28:14;;;;;;;11.88;4.68;;;;;;;-143.21;61.32;71737.06;5051059;28;20661;-80
2023/09/01 07:30:43;;;;;;;9.32;4.30;;;;;;;-143.21;60.97;71711.28;5043920;28;20198;-81
2023/09/01 07:33:11;;;;;;;6.60;4.20;;;;;;;-143.21;60.65;71687.50;5045538;28;20205;-80
2023/09/01 07:35:38;;;;;;;7.07;3.92;;;;;;;-143.21;60.31;71681.56;5046252;28;20210;-80
2023/09/01 07:38:10;;;;;;;6.78;4.20;;;;;;;-143.21;59.75;71679.56;5043932;28;20206;-80
2023/09/01 07:40:44;;;;;;;7.20;4.20;;;;;;;-143.21;59.76;71675.59;5048189;28;20236;-84
2023/09/01 07:43:11;;;;;;;10.55;4.75;;;;;;;-143.21;59.34;71667.66;5041327;28;20213;-83
2023/09/01 07:45:39;;;;;;;7.53;4.22;;;;;;;-143.21;58.63;71655.78;5047129;28;20237;-80
2023/09/01 07:48:19;;;;;;;6.45;4.40;;;;;;;-143.21;57.97;71649.81;5046337;28;20628;-84
2023/09/01 07:50:46;;;;;;;7.70;4.40;;;;;;;-143.21;57.84;71635.94;5044754;28;20206;-86
2023/09/01 07:53:14;;;;;;;6.50;4.25;;;;;;;-143.21;57.53;71622.06;5038180;28;20654;-85
2023/09/01 07:55:42;;;;;;;8.57;4.43;;;;;;;-143.21;57.47;71610.16;5044679;28;20201;-84
2023/09/01 07:58:11;;;;;;;6.25;4.40;;;;;;;-143.21;56.84;71602.25;5048878;28;20288;-83
2023/09/01 08:00:40;;;;;;;5.78;4.30;;;;;;;-143.21;57.11;71602.25;5047364;28;20209;-83
2023/09/01 08:03:10;;;;;;;6.97;4.22;;;;;;;-143.21;57.03;71596.28;5045736;28;20245;-82
2023/09/01 08:05:37;;;;;;;8.38;4.68;;;;;;;-143.21;56.05;71586.38;5049831;28;20630;-82
2023/09/01 08:08:05;;;;;;;6.50;4.30;;;;;;;-143.21;56.16;71588.38;5044336;28;20205;-83
2023/09/01 08:10:31;;;;;;;9.38;4.57;;;;;;;-143.21;55.98;71580.44;5046651;28;20213;-83
2023/09/01 08:13:00;;;;;;;6.28;4.90;;;;;;;-143.21;55.33;71588.38;5042019;28;20665;-82
2023/09/01 08:15:27;;;;;;;6.50;4.85;;;;;;;-143.21;55.55;71584.41;5045596;28;20198;-85
2023/09/01 08:17:54;;;;;;;6.47;4.50;;;;;;;-143.21;55.04;71582.41;5045404;28;20216;-83
2023/09/01 08:20:22;;;;;;;10.27;4.80;;;;;;;-143.21;54.85;71572.50;5049566;28;21129;-82
2023/09/01 08:22:49;;;;;;;6.22;4.20;;;;;;;-143.21;54.12;71544.75;5045269;28;20229;-90
2023/09/01 08:25:16;;;;;;;8.20;5.53;;;;;;;-143.21;53.71;71516.97;5051029;28;20291;-84
2023/09/01 08:27:43;;;;;;;10.10;5.20;;;;;;;-143.21;52.90;71511.03;5049643;28;20823;-82
2023/09/01 08:30:13;;;;;;;8.35;5.05;;;;;;;-143.21;53.45;71509.06;5053100;28;20218;-83
2023/09/01 08:32:43;;;;;;;9.88;5.30;;;;;;;-143.21;53.04;71497.16;5042616;28;20221;-82
2023/09/01 08:35:11;;;;;;;7.05;5.45;;;;;;;-143.21;53.07;71505.09;5050279;28;20221;-83
2023/09/01 08:37:38;;;;;;;9.23;5.63;;;;;;;-143.21;53.27;71497.16;5051137;28;20271;-83
2023/09/01 08:40:06;;;;;;;10.75;6.10;;;;;;;-143.21;54.47;71483.28;5051523;28;20205;-84
2023/09/01 08:42:35;;;;;;;8.75;5.90;;;;;;;-143.21;52.87;71461.47;5052519;28;20229;-85
2023/09/01 08:45:03;;;;;;;12.57;5.70;;;;;;;-143.21;51.93;71443.63;5048279;28;20296;-81
2023/09/01 08:47:39;;;;;;;7.80;5.80;;;;;;;-143.21;51.34;71417.84;5038726;28;20202;-82
2023/09/01 08:50:07;;;;;;;10.00;5.95;;;;;;;-143.21;51.28;71394.06;5046111;28;20300;-82
2023/09/01 08:52:34;;;;;;;8.85;5.28;;;;;;;-143.21;50.93;71366.31;5047974;28;20206;-82
2023/09/01 08:55:05;;;;;;;8.75;5.22;;;;;;;-143.21;50.27;71358.38;5041670;28;20295;-82
2023/09/01 08:57:32;;;;;;;6.53;4.95;;;;;;;-143.21;50.15;71336.56;5041906;28;20205;-83
2023/09/01 08:59:59;;;;;;;7.80;5.15;;;;;;;-143.21;49.80;71330.63;5048856;28;20214;-84
2023/09/01 09:02:26;;;;;;;8.38;5.07;;;;;;;-143.21;49.75;71318.72;5044796;28;20226;-82
2023/09/01 09:04:55;;;;;;;9.35;5.40;;;;;;;-143.21;48.76;71310.78;5050748;28;20293;-81
2023/09/01 09:07:22;;;;;;;11.55;5.13;;;;;;;-143.21;47.26;71314.75;5043632;28;20216;-83
2023/09/01 09:09:53;;;;;;;6.78;4.38;;;;;;;-143.21;47.59;71314.75;5052423;28;20232;-83
2023/09/01 09:12:21;;;;;;;6.35;4.40;;;;;;;-143.21;47.54;71292.94;5045426;28;20198;-85
2023/09/01 09:14:52;;;;;;;6.20;3.97;;;;;;;-143.21;45.85;71273.13;5045614;28;20199;-84
2023/09/01 09:17:22;;;;;;;7.45;4.60;;;;;;;-143.21;45.85;71269.16;5053899;28;20301;-84
2023/09/01 09:19:53;;;;;;;6.30;4.35;;;;;;;-143.21;46.21;71261.22;5047658;28;20277;-84
2023/09/01 09:22:22;;;;;;;9.07;4.68;;;;;;;-143.21;45.82;71259.25;5055720;28;20297;-84
2023/09/01 09:24:49;;;;;;;9.68;4.65;;;;;;;-143.21;46.14;71267.19;5050859;28;20668;-85
2023/09/01 09:27:17;;;;;;;7.15;4.70;;;;;;;-143.21;45.58;71257.25;5050345;28;20236;-86
2023/09/01 09:29:47;;;;;;;10.10;4.60;;;;;;;-143.21;45.32;71263.22;5052519;28;20202;-84
2023/09/01 09:32:19;;;;;;;8.32;4.72;;;;;;;-143.21;45.50;71263.22;5052957;28;20218;-86
2023/09/01 09:35:05;;;;;;;10.73;5.65;;;;;;;-143.21;46.69;71253.28;5046474;28;20206;-87
2023/09/01 09:37:35;;;;;;;9.00;4.72;;;;;;;-143.21;46.45;71213.66;5033554;28;20213;-86
2023/09/01 09:40:14;;;;;;;8.50;4.85;;;;;;;-143.21;45.04;71179.94;5037879;28;20198;-84
2023/09/01 09:42:42;;;;;;;6.78;4.82;;;;;;;-143.21;44.56;71172.00;5049399;28;20245;-85
2023/09/01 09:45:28;;;;;;;5.47;4.13;;;;;;;-143.21;44.94;71142.28;5049827;28;20213;-85
2023/09/01 09:47:59;;;;;;;8.05;4.32;;;;;;;-143.21;44.17;71112.53;5048015;28;20206;-84
2023/09/01 09:50:26;;;;;;;6.35;4.15;;;;;;;-143.21;43.35;71082.81;5046702;28;20301;-85
2023/09/01 09:53:00;;;;;;;6.75;4.78;;;;;;;-143.21;42.62;71059.00;5044503;28;20211;-84
2023/09/01 09:55:28;;;;;;;9.07;4.70;;;;;;;-143.21;42.14;71035.22;5049918;28;20569;-85
2023/09/01 09:58:07;;;;;;;8.25;4.45;;;;;;;-143.21;42.30;71041.16;5047577;28;20205;-78
2023/09/01 10:00:41;;;;;;;8.13;4.57;;;;;;;-143.21;42.04;71037.22;5043709;28;20213;-83
2023/09/01 10:03:23;;;;;;;10.25;5.07;;;;;;;-143.21;42.15;71035.22;5042648;28;20279;-84
2023/09/01 10:05:56;;;;;;;8.90;4.43;;;;;;;-143.21;41.71;71013.41;5043850;28;20297;-86
2023/09/01 10:08:54;;;;;;;7.43;4.22;;;;;;;-143.21;41.36;71001.53;5042721;28;20692;-87
2023/09/01 10:11:48;;;;;;;10.00;5.00;;;;;;;-143.21;41.20;70969.81;5050449;28;20283;-85
2023/09/01 10:14:37;;;;;;;10.20;4.43;;;;;;;-143.21;39.86;70932.13;5040088;28;20201;-83
2023/09/01 10:17:06;;;;;;;7.63;4.35;;;;;;;-143.21;39.98;70906.38;5048653;28;20232;-85
2023/09/01 10:19:35;;;;;;;10.43;4.72;;;;;;;-143.21;39.92;70892.50;5045475;28;20954;-83
2023/09/01 10:22:03;;;;;;;6.63;4.50;;;;;;;-143.21;38.97;70864.75;5030829;28;20696;-83
2023/09/01 10:24:36;;;;;;;7.65;4.45;;;;;;;-143.21;39.18;70872.66;5027662;28;20207;-86
2023/09/01 10:44:44;;;;;;;7.90;4.07;;;;;;;-143.21;38.19;70854.84;6121440;22;2579049;-85
2023/09/01 10:47:45;;;;;;;7.88;4.10;;;;;;;-143.21;37.45;70813.19;6248135;23;20161;-85
2023/09/01 10:50:13;;;;;;;5.32;4.10;;;;;;;-143.21;37.16;70801.31;6252240;23;20171;-86
2023/09/01 10:52:42;;;;;;;7.63;4.30;;;;;;;-143.21;36.79;70757.69;6258357;23;20264;-88
2023/09/01 10:55:09;;;;;;;5.47;3.80;;;;;;;-143.21;35.33;70724.00;6263250;23;20171;-91
2023/09/01 10:57:45;;;;;;;5.63;3.85;;;;;;;-143.21;35.09;70702.19;6255255;23;20172;-89
2023/09/01 11:00:31;;;;;;;3.80;3.40;;;;;;;-143.21;34.11;70678.41;6252073;23;20192;-89
2023/09/01 11:03:29;;;;;;;6.43;3.58;;;;;;;-143.21;34.34;70642.72;6258868;23;20175;-89
2023/09/01 11:05:57;;;;;;;5.35;3.67;;;;;;;-143.21;34.24;70656.59;6264534;23;20203;-89
2023/09/01 11:08:30;;;;;;;7.35;4.20;;;;;;;-143.21;34.22;70646.69;6255605;23;20256;-89
2023/09/01 11:11:13;;;;;;;6.07;4.18;;;;;;;-143.21;34.23;70638.75;6251720;23;20165;-89
2023/09/01 11:13:40;;;;;;;5.68;3.80;;;;;;;-143.21;34.16;70613.00;6252820;23;20179;-89
2023/09/01 11:16:12;;;;;;;4.55;4.10;;;;;;;-143.21;34.46;70579.31;6250694;23;20180;-89
2023/09/01 11:18:39;;;;;;;5.63;4.00;;;;;;;-143.21;33.72;70553.53;6251185;23;20169;-88
2023/09/01 11:21:10;;;;;;;5.43;3.60;;;;;;;-143.21;33.53;70547.59;6251639;23;20520;-89
2023/09/01 11:23:39;;;;;;;4.07;3.53;;;;;;;-143.21;33.10;70539.66;6251687;23;20157;-89
2023/09/01 11:26:08;;;;;;;5.03;3.90;;;;;;;-143.21;33.75;70575.34;6250444;23;20165;-89
2023/09/01 11:28:35;;;;;;;4.20;3.50;;;;;;;-143.21;33.10;70529.75;6250718;23;20176;-89
2023/09/01 11:31:03;;;;;;;4.38;3.70;;;;;;;-143.21;32.62;70517.84;6250766;23;20577;-89
2023/09/01 11:33:34;;;;;;;4.80;3.63;;;;;;;-143.21;32.96;70533.72;6250618;23;20185;-90
2023/09/01 11:36:06;;;;;;;5.82;4.10;;;;;;;-143.21;33.48;70529.75;6255223;23;20219;-89
2023/09/01 11:38:34;;;;;;;6.60;4.05;;;;;;;-143.21;32.54;70498.03;6250439;23;20236;-88
2023/09/01 11:41:04;;;;;;;4.82;3.90;;;;;;;-143.21;32.63;70511.91;6250110;23;20169;-89